Time;durP1;ratioP1;P1;durP2;ratioP2;P2;SDS_P1;SDS_P2;PMS_P1;PMS_P2;Temp;Humidity;BMP_temperature;BMP_pressure;BME280_temperature;BME280_humidity;BME280_pressure;Samples;Min_cycle;Max_cycle;Signal;HPM_P1;HPM_P2
2023/07/28 00:01:33;;;;;;;18.23;13.20;;;;;;;21.36;100.00;-18601.16;5107684;28;20031;-78
2023/07/28 00:03:59;;;;;;;18.42;14.82;;;;;;;21.46;100.00;-18603.59;5093761;28;20035;-78
2023/07/28 00:06:24;;;;;;;18.23;14.43;;;;;;;21.59;100.00;-18607.28;5111416;28;20067;-77
2023/07/28 00:08:49;;;;;;;17.60;14.43;;;;;;;;;;5111744;28;20039;-76
2023/07/28 00:11:15;;;;;;;16.40;12.53;;;;;;;21.63;100.00;-18608.22;5110352;28;20035;-77
2023/07/28 00:13:42;;;;;;;16.10;13.80;;;;;;;21.70;100.00;-18610.13;5112648;28;20281;-77
2023/07/28 00:16:09;;;;;;;15.85;12.40;;;;;;;21.52;100.00;-18605.22;5107727;28;20040;-78
2023/07/28 00:18:34;;;;;;;19.30;14.55;;;;;;;21.64;100.00;-18608.50;5105733;28;20047;-79
2023/07/28 00:21:00;;;;;;;17.75;14.77;;;;;;;21.70;100.00;-18610.13;5092228;28;20051;-78
2023/07/28 00:23:25;;;;;;;17.83;14.98;;;;;;;21.64;100.00;-18608.50;5090448;28;20051;-75
2023/07/28 00:25:51;;;;;;;18.08;13.88;;;;;;;21.58;100.00;-18606.88;5107975;28;20039;-77
2023/07/28 00:28:16;;;;;;;18.50;12.98;;;;;;;21.72;100.00;-18610.66;5108998;28;21093;-77
2023/07/28 00:30:42;;;;;;;19.20;13.95;;;;;;;21.59;100.00;-18607.28;5106740;28;20043;-76
2023/07/28 00:33:07;;;;;;;17.65;13.00;;;;;;;21.51;100.00;-18605.09;5094782;28;20077;-77
2023/07/28 00:35:32;;;;;;;18.10;13.85;;;;;;;21.43;100.00;-18602.91;5104576;28;20032;-77
2023/07/28 00:37:58;;;;;;;19.95;13.77;;;;;;;21.36;100.00;-18601.16;5105198;28;20043;-76
2023/07/28 00:40:23;;;;;;;19.08;14.35;;;;;;;21.27;100.00;-18598.69;5088661;28;20140;-78
2023/07/28 00:42:49;;;;;;;18.67;15.80;;;;;;;21.28;100.00;-18598.84;5104281;28;20056;-78
2023/07/28 00:45:15;;;;;;;20.65;16.00;;;;;;;21.48;100.00;-18604.28;5105994;28;20051;-77
2023/07/28 00:47:41;;;;;;;17.92;13.88;;;;;;;21.56;100.00;-18606.44;5108558;28;20058;-76
2023/07/28 00:50:08;;;;;;;18.13;13.57;;;;;;;21.63;100.00;-18608.22;5107435;28;20099;-78
2023/07/28 00:52:34;;;;;;;21.10;15.10;;;;;;;21.56;100.00;-18606.31;5106558;28;20570;-79
2023/07/28 00:55:00;;;;;;;21.05;15.80;;;;;;;21.44;100.00;-18603.06;5103024;28;20124;-76
2023/07/28 00:57:26;;;;;;;17.33;14.25;;;;;;;21.48;100.00;-18604.16;5108553;28;20043;-76
2023/07/28 00:59:51;;;;;;;20.02;15.88;;;;;;;21.52;100.00;-18605.22;5106515;28;20553;-79
2023/07/28 01:02:17;;;;;;;21.05;15.50;;;;;;;21.51;100.00;-18605.09;5106682;28;20165;-76
2023/07/28 01:04:43;;;;;;;20.33;15.35;;;;;;;21.70;100.00;-18610.13;5106741;28;20427;-79
2023/07/28 01:07:23;;;;;;;22.35;15.93;;;;;;;21.68;100.00;-18609.56;5108088;28;20437;-79
2023/07/28 01:10:06;;;;;;;20.33;15.93;;;;;;;21.68;100.00;-18609.56;5109607;28;20089;-78
2023/07/28 01:12:32;;;;;;;20.27;15.07;;;;;;;21.70;100.00;-18610.13;5090814;28;20051;-77
2023/07/28 01:15:00;;;;;;;22.52;17.08;;;;;;;21.61;100.00;-18607.81;5104190;28;20470;-77
2023/07/28 01:17:26;;;;;;;21.90;15.33;;;;;;;21.69;100.00;-18609.84;5111418;28;20053;-78
2023/07/28 01:19:54;;;;;;;18.45;14.50;;;;;;;21.71;100.00;-18610.25;5088219;28;20039;-77
2023/07/28 01:22:49;;;;;;;20.05;15.27;;;;;;;21.65;100.00;-18608.63;5107154;28;20047;-74
2023/07/28 01:25:28;;;;;;;21.10;16.13;;;;;;;21.75;100.00;-18611.34;5100074;28;20062;-76
2023/07/28 01:27:54;;;;;;;22.05;16.38;;;;;;;21.69;100.00;-18609.84;5108424;28;20609;-77
2023/07/28 01:30:21;;;;;;;20.73;14.80;;;;;;;21.76;100.00;-18611.63;5106987;28;20051;-75
2023/07/28 01:32:47;;;;;;;21.65;16.40;;;;;;;21.80;100.00;-18612.69;5100560;28;20116;-77
2023/07/28 01:35:13;;;;;;;20.73;15.15;;;;;;;21.87;100.00;-18614.59;5106165;28;20047;-76
2023/07/28 01:37:38;;;;;;;19.60;15.18;;;;;;;21.68;100.00;-18609.44;5083879;28;20043;-78
2023/07/28 01:40:04;;;;;;;19.48;14.75;;;;;;;21.60;100.00;-18607.53;5107514;28;20039;-77
2023/07/28 01:42:29;;;;;;;23.08;15.63;;;;;;;21.56;100.00;-18606.44;5105577;28;20036;-78
2023/07/28 01:44:54;;;;;;;22.45;16.42;;;;;;;21.60;100.00;-18607.53;5101692;28;20370;-76
2023/07/28 01:47:20;;;;;;;23.98;15.52;;;;;;;21.61;100.00;-18607.69;5103166;28;20036;-78
2023/07/28 01:49:45;;;;;;;25.23;17.52;;;;;;;21.62;100.00;-18607.94;5086520;28;20044;-78
2023/07/28 01:52:11;;;;;;;20.85;15.95;;;;;;;21.70;100.00;-18610.13;5106806;28;20077;-75
2023/07/28 01:54:36;;;;;;;22.63;16.98;;;;;;;21.74;100.00;-18611.22;5109414;28;20079;-77
2023/07/28 01:57:01;;;;;;;21.88;15.85;;;;;;;21.70;100.00;-18610.13;5111746;28;20043;-77
2023/07/28 01:59:27;;;;;;;22.27;16.45;;;;;;;21.70;100.00;-18610.13;5108166;28;20067;-76
2023/07/28 02:01:52;;;;;;;22.23;15.82;;;;;;;21.62;100.00;-18607.94;5107812;28;20054;-79
2023/07/28 02:04:17;;;;;;;20.70;15.15;;;;;;;21.61;100.00;-18607.69;5109676;28;20507;-79
2023/07/28 02:06:43;;;;;;;22.00;15.95;;;;;;;21.54;100.00;-18605.91;5110001;28;20428;-78
2023/07/28 02:09:08;;;;;;;19.08;13.50;;;;;;;21.44;100.00;-18603.06;5109880;28;20031;-79
2023/07/28 02:11:33;;;;;;;22.05;14.32;;;;;;;21.46;100.00;-18603.59;5108601;28;20190;-77
2023/07/28 02:13:59;;;;;;;21.02;15.43;;;;;;;21.42;100.00;-18602.66;5108161;28;20403;-76
2023/07/28 02:16:27;;;;;;;23.08;14.95;;;;;;;21.47;100.00;-18604.00;5109991;28;20044;-78
2023/07/28 02:18:53;;;;;;;21.02;15.57;;;;;;;21.36;100.00;-18601.16;5103229;28;20051;-78
2023/07/28 02:21:18;;;;;;;20.15;15.38;;;;;;;21.44;100.00;-18603.06;5090703;28;20051;-78
2023/07/28 02:23:44;;;;;;;19.65;14.57;;;;;;;21.47;100.00;-18603.88;5105127;28;20556;-76
2023/07/28 02:26:09;;;;;;;20.85;14.55;;;;;;;21.60;100.00;-18607.41;5089070;28;20050;-78
2023/07/28 02:28:34;;;;;;;23.30;16.25;;;;;;;21.74;100.00;-18611.22;5089516;28;20040;-77
2023/07/28 02:31:00;;;;;;;24.73;17.52;;;;;;;21.82;100.00;-18613.38;5087894;28;20051;-76
2023/07/28 02:33:29;;;;;;;21.88;15.65;;;;;;;21.71;100.00;-18610.25;5106852;28;20059;-78
2023/07/28 02:35:55;;;;;;;22.70;16.17;;;;;;;21.63;100.00;-18608.34;5105384;28;20449;-78
2023/07/28 02:38:20;;;;;;;24.08;15.60;;;;;;;21.55;100.00;-18606.19;5107489;28;20454;-75
2023/07/28 02:40:46;;;;;;;21.65;14.88;;;;;;;21.56;100.00;-18606.44;5104697;28;20067;-76
2023/07/28 02:43:11;;;;;;;23.33;16.38;;;;;;;21.58;100.00;-18607.00;5099050;28;20046;-77
2023/07/28 02:45:36;;;;;;;25.75;16.65;;;;;;;21.57;100.00;-18606.59;5102542;28;20066;-78
2023/07/28 02:48:02;;;;;;;23.92;15.77;;;;;;;21.64;100.00;-18608.50;5102916;28;20122;-76
2023/07/28 02:50:27;;;;;;;24.55;16.85;;;;;;;21.55;100.00;-18606.03;5105186;28;20055;-78
2023/07/28 02:52:53;;;;;;;26.70;17.92;;;;;;;21.58;100.00;-18606.88;5103525;28;20128;-76
2023/07/28 02:55:18;;;;;;;27.27;17.60;;;;;;;21.48;100.00;-18604.16;5106320;28;20038;-77
2023/07/28 02:57:43;;;;;;;27.88;17.73;;;;;;;21.51;100.00;-18604.97;5104832;28;20044;-78
2023/07/28 03:00:10;;;;;;;27.38;18.05;;;;;;;21.55;100.00;-18606.03;5103381;28;20070;-76
2023/07/28 03:02:36;;;;;;;29.88;19.00;;;;;;;21.49;100.00;-18604.41;5101665;28;20058;-77
2023/07/28 03:05:01;;;;;;;25.38;16.38;;;;;;;21.61;100.00;-18607.81;5105825;28;20047;-77
2023/07/28 03:07:30;;;;;;;29.33;18.45;;;;;;;21.70;100.00;-18610.13;5104505;28;20356;-78
2023/07/28 03:09:55;;;;;;;30.42;18.60;;;;;;;21.70;100.00;-18610.00;5105008;28;20044;-78
2023/07/28 03:12:21;;;;;;;31.13;17.92;;;;;;;21.73;100.00;-18610.94;5102695;28;20042;-76
2023/07/28 03:14:46;;;;;;;31.38;18.95;;;;;;;21.63;100.00;-18608.22;5102872;28;20047;-80
2023/07/28 03:17:11;;;;;;;28.73;18.80;;;;;;;21.57;100.00;-18606.59;5104158;28;20036;-81
2023/07/28 03:19:37;;;;;;;28.38;17.77;;;;;;;21.44;100.00;-18603.19;5102879;28;20042;-78
2023/07/28 03:22:02;;;;;;;27.33;18.20;;;;;;;21.64;100.00;-18608.50;5103808;28;20114;-80
2023/07/28 03:24:28;;;;;;;31.38;19.15;;;;;;;21.65;100.00;-18608.75;5104312;28;20048;-79
2023/07/28 03:26:53;;;;;;;29.30;18.63;;;;;;;21.71;100.00;-18610.41;5104283;28;20759;-80
2023/07/28 03:29:19;;;;;;;35.15;19.40;;;;;;;21.65;100.00;-18608.63;5103845;28;20040;-79
2023/07/28 03:31:44;;;;;;;31.98;18.67;;;;;;;21.82;100.00;-18613.38;5100623;28;20063;-79
2023/07/28 03:34:10;;;;;;;29.60;17.90;;;;;;;21.64;100.00;-18608.50;5101136;28;20515;-77
2023/07/28 03:36:35;;;;;;;27.88;19.27;;;;;;;21.58;100.00;-18606.88;5102179;28;20036;-80
2023/07/28 03:39:00;;;;;;;29.98;18.35;;;;;;;21.51;100.00;-18605.09;5105289;28;20505;-80
2023/07/28 03:41:26;;;;;;;29.75;19.15;;;;;;;21.49;100.00;-18604.56;5103519;28;20035;-78
2023/07/28 03:43:51;;;;;;;31.15;19.88;;;;;;;21.41;100.00;-18602.38;5103006;28;20040;-80
2023/07/28 03:46:16;;;;;;;33.65;20.13;;;;;;;21.46;100.00;-18603.59;5086482;28;20042;-80
2023/07/28 03:48:42;;;;;;;32.67;19.83;;;;;;;21.37;100.00;-18601.41;5086589;28;20043;-79
2023/07/28 03:51:07;;;;;;;31.90;18.70;;;;;;;21.55;100.00;-18606.03;5102871;28;20035;-80
2023/07/28 03:53:35;;;;;;;33.97;18.92;;;;;;;21.57;100.00;-18606.59;5103382;28;20035;-79
2023/07/28 03:56:00;;;;;;;34.10;19.65;;;;;;;21.52;100.00;-18605.22;5086172;28;20107;-79
2023/07/28 03:58:26;;;;;;;31.52;19.40;;;;;;;21.31;100.00;-18599.66;5083988;28;20582;-79
2023/07/28 04:00:53;;;;;;;33.60;18.35;;;;;;;21.45;100.00;-18603.47;5097783;28;20250;-79
2023/07/28 04:03:18;;;;;;;33.45;20.15;;;;;;;21.45;100.00;-18603.47;5101649;28;20040;-77
2023/07/28 04:05:43;;;;;;;34.25;18.85;;;;;;;21.31;100.00;-18599.78;5102376;28;20534;-80
2023/07/28 04:08:09;;;;;;;31.85;19.70;;;;;;;21.23;100.00;-18597.63;5101767;28;20039;-78
2023/07/28 04:10:34;;;;;;;31.40;18.70;;;;;;;21.33;100.00;-18600.34;5103357;28;20051;-78
2023/07/28 04:13:00;;;;;;;28.85;17.50;;;;;;;21.23;100.00;-18597.47;5102339;28;20067;-80
2023/07/28 04:15:25;;;;;;;33.72;19.33;;;;;;;21.42;100.00;-18602.50;5104669;28;20051;-78
2023/07/28 04:17:50;;;;;;;32.78;19.10;;;;;;;21.34;100.00;-18600.47;5102573;28;20434;-77
2023/07/28 04:20:16;;;;;;;33.88;19.60;;;;;;;21.29;100.00;-18599.09;5100750;28;20763;-79
2023/07/28 04:22:41;;;;;;;32.60;18.40;;;;;;;21.42;100.00;-18602.50;5089942;28;20046;-78
2023/07/28 04:25:07;;;;;;;33.08;19.85;;;;;;;21.34;100.00;-18600.47;5101755;28;20039;-77
2023/07/28 04:27:32;;;;;;;30.90;18.02;;;;;;;21.11;100.00;-18594.34;5085209;28;20035;-78
2023/07/28 04:29:58;;;;;;;30.65;18.02;;;;;;;21.24;100.00;-18597.75;5086103;28;20081;-79
2023/07/28 04:32:24;;;;;;;28.80;17.98;;;;;;;21.33;100.00;-18600.34;5103225;28;20048;-79
2023/07/28 04:34:50;;;;;;;27.15;16.58;;;;;;;21.35;100.00;-18600.88;5094968;28;20092;-79
2023/07/28 04:37:15;;;;;;;33.00;18.58;;;;;;;21.27;100.00;-18598.69;5101396;28;20043;-77
2023/07/28 04:39:41;;;;;;;29.23;17.02;;;;;;;21.36;100.00;-18601.16;5082832;28;20047;-77
2023/07/28 04:42:06;;;;;;;34.08;19.83;;;;;;;21.29;100.00;-18599.25;5085093;28;20040;-76
2023/07/28 04:44:31;;;;;;;31.33;18.35;;;;;;;21.35;100.00;-18600.88;5103348;28;20044;-79
2023/07/28 04:46:57;;;;;;;33.05;18.98;;;;;;;21.21;100.00;-18597.06;5103449;28;20058;-78
2023/07/28 04:49:22;;;;;;;36.42;19.15;;;;;;;21.26;100.00;-18598.28;5103839;28;20071;-80
2023/07/28 04:51:47;;;;;;;33.72;18.20;;;;;;;21.24;100.00;-18597.88;5095304;28;20036;-79
2023/07/28 04:54:13;;;;;;;31.27;17.50;;;;;;;21.21;100.00;-18597.06;5098212;28;20132;-78
2023/07/28 04:56:38;;;;;;;32.50;17.98;;;;;;;21.27;100.00;-18598.69;5103845;28;20093;-78
2023/07/28 04:59:04;;;;;;;27.33;15.55;;;;;;;21.25;100.00;-18598.16;5101829;28;20081;-79
2023/07/28 05:01:29;;;;;;;33.92;17.30;;;;;;;21.21;100.00;-18597.06;5101242;28;20048;-80
2023/07/28 05:03:55;;;;;;;33.33;16.80;;;;;;;21.23;100.00;-18597.47;5103692;28;20047;-79
2023/07/28 05:06:20;;;;;;;32.70;17.75;;;;;;;21.07;100.00;-18593.25;5102604;28;20559;-79
2023/07/28 05:08:45;;;;;;;30.67;17.73;;;;;;;21.12;100.00;-18594.63;5102088;28;22082;-78
2023/07/28 05:11:11;;;;;;;31.90;17.15;;;;;;;20.94;100.00;-18590.00;5101957;28;20666;-77
2023/07/28 05:13:36;;;;;;;37.35;18.85;;;;;;;21.19;100.00;-18596.53;5101252;28;20075;-78
2023/07/28 05:16:01;;;;;;;37.55;16.90;;;;;;;20.97;100.00;-18590.69;5103469;28;20085;-79
2023/07/28 05:18:27;;;;;;;35.38;20.10;;;;;;;21.11;100.00;-18594.34;5100004;28;20138;-78
2023/07/28 05:20:52;;;;;;;37.10;19.33;;;;;;;21.17;100.00;-18596.13;5101920;28;20035;-79
2023/07/28 05:23:17;;;;;;;38.33;19.77;;;;;;;21.14;100.00;-18595.31;5100732;28;20036;-80
2023/07/28 05:25:43;;;;;;;43.25;19.75;;;;;;;21.26;100.00;-18598.44;5097723;28;20603;-78
2023/07/28 05:28:08;;;;;;;40.13;19.92;;;;;;;21.33;100.00;-18600.34;5101781;28;20570;-80
2023/07/28 05:30:33;;;;;;;41.60;19.00;;;;;;;21.37;100.00;-18601.28;5101993;28;20502;-79
2023/07/28 05:32:59;;;;;;;41.72;19.63;;;;;;;21.24;100.00;-18597.75;5099933;28;20049;-78
2023/07/28 05:35:24;;;;;;;36.42;18.05;;;;;;;21.30;100.00;-18599.53;5103252;28;20047;-79
2023/07/28 05:37:49;;;;;;;39.30;17.98;;;;;;;21.14;100.00;-18595.16;5102961;28;20623;-78
2023/07/28 05:40:15;;;;;;;38.78;20.05;;;;;;;21.14;100.00;-18595.16;5102743;28;20036;-78
2023/07/28 05:42:40;;;;;;;37.15;18.40;;;;;;;21.19;100.00;-18596.53;5084220;28;20112;-79
2023/07/28 05:45:06;;;;;;;38.50;17.52;;;;;;;20.95;100.00;-18590.13;5102974;28;20043;-78
2023/07/28 05:47:31;;;;;;;36.00;18.15;;;;;;;20.89;100.00;-18588.63;5085779;28;20496;-79
2023/07/28 05:49:56;;;;;;;41.03;19.33;;;;;;;21.14;100.00;-18595.16;5102403;28;20066;-79
2023/07/28 05:52:22;;;;;;;44.50;20.10;;;;;;;21.28;100.00;-18598.84;5103124;28;20054;-78
2023/07/28 05:54:48;;;;;;;37.40;18.42;;;;;;;21.37;100.00;-18601.28;5100941;28;20040;-78
2023/07/28 05:57:13;;;;;;;41.75;19.63;;;;;;;21.27;100.00;-18598.69;5103353;28;20044;-79
2023/07/28 05:59:39;;;;;;;36.20;18.55;;;;;;;20.99;100.00;-18591.22;5088128;28;20044;-80
2023/07/28 06:02:04;;;;;;;36.97;18.50;;;;;;;21.07;100.00;-18593.41;5102352;28;20398;-77
2023/07/28 06:04:30;;;;;;;37.45;18.55;;;;;;;21.29;100.00;-18599.25;5099020;28;20035;-78
2023/07/28 06:06:55;;;;;;;37.03;17.98;;;;;;;21.15;100.00;-18595.56;5103997;28;20538;-79
2023/07/28 06:09:20;;;;;;;39.97;20.42;;;;;;;21.18;100.00;-18596.25;5102123;28;20481;-80
2023/07/28 06:11:46;;;;;;;42.60;19.92;;;;;;;21.53;100.00;-18605.50;5104863;28;20058;-79
2023/07/28 06:14:14;;;;;;;38.40;19.73;;;;;;;21.53;100.00;-18605.63;5090109;28;20046;-80
2023/07/28 06:16:42;;;;;;;47.85;21.42;;;;;;;21.44;100.00;-18603.06;5102972;28;20543;-78
2023/07/28 06:19:08;;;;;;;37.45;18.65;;;;;;;21.50;100.00;-18604.69;5096747;28;20044;-77
2023/07/28 06:21:33;;;;;;;39.42;19.75;;;;;;;21.66;100.00;-18608.91;5105120;28;20047;-80
2023/07/28 06:23:59;;;;;;;36.35;18.88;;;;;;;21.71;100.00;-18610.41;5105597;28;20051;-78
2023/07/28 06:26:24;;;;;;;37.92;19.55;;;;;;;21.72;100.00;-18610.53;5099619;28;20040;-79
2023/07/28 06:28:50;;;;;;;41.20;19.15;;;;;;;21.90;100.00;-18615.28;5105016;28;20043;-79
2023/07/28 06:31:15;;;;;;;48.65;19.42;;;;;;;21.69;100.00;-18609.84;5102119;28;20084;-79
2023/07/28 06:33:41;;;;;;;38.53;18.20;;;;;;;21.60;100.00;-18607.41;5106049;28;20052;-79
2023/07/28 06:36:06;;;;;;;41.45;18.48;;;;;;;21.66;100.00;-18608.91;5107384;28;20035;-78
2023/07/28 06:38:32;;;;;;;37.47;16.58;;;;;;;21.59;100.00;-18607.13;5102746;28;20043;-79
2023/07/28 06:40:57;;;;;;;42.92;18.75;;;;;;;21.58;100.00;-18607.00;5105902;28;20125;-78
2023/07/28 06:43:23;;;;;;;38.15;17.13;;;;;;;21.84;100.00;-18613.78;5102053;28;20060;-79
2023/07/28 06:45:51;;;;;;;39.47;18.42;;;;;;;21.66;100.00;-18609.03;5105013;28;20407;-79
2023/07/28 06:48:17;;;;;;;42.53;19.75;;;;;;;21.85;100.00;-18614.06;5099798;27;20051;-79
2023/07/28 06:50:42;;;;;;;40.22;18.52;;;;;;;21.79;100.00;-18612.44;5102853;28;20039;-79
2023/07/28 06:53:08;;;;;;;40.17;18.45;;;;;;;21.82;100.00;-18613.38;5070066;28;20085;-80
2023/07/28 06:55:33;;;;;;;46.05;20.48;;;;;;;21.88;100.00;-18614.88;5041857;28;20044;-79
2023/07/28 06:57:59;;;;;;;48.97;18.70;;;;;;;22.10;100.00;-18620.72;5043838;28;20072;-80
2023/07/28 07:00:24;;;;;;;43.70;20.20;;;;;;;21.99;100.00;-18617.72;5037505;28;20084;-79
2023/07/28 07:02:49;;;;;;;43.70;20.17;;;;;;;21.94;100.00;-18616.38;5032568;28;20121;-78
2023/07/28 07:05:15;;;;;;;49.75;20.45;;;;;;;21.97;100.00;-18617.19;5022689;28;20068;-78
2023/07/28 07:07:40;;;;;;;52.47;21.02;;;;;;;21.97;100.00;-18617.19;5037726;28;20065;-78
2023/07/28 07:10:06;;;;;;;46.97;20.65;;;;;;;21.76;100.00;-18611.75;5038675;28;20056;-77
2023/07/28 07:12:32;;;;;;;50.13;21.75;;;;;;;21.67;100.00;-18609.31;5035303;28;20046;-78
2023/07/28 07:14:57;;;;;;;46.65;20.80;;;;;;;21.64;100.00;-18608.50;5033493;28;20056;-80
2023/07/28 07:17:23;;;;;;;51.00;21.17;;;;;;;21.75;100.00;-18611.47;5033245;28;20579;-80
2023/07/28 07:19:48;;;;;;;46.72;20.48;;;;;;;21.76;100.00;-18611.75;5076147;28;20035;-78
2023/07/28 07:22:14;;;;;;;44.28;21.25;;;;;;;21.79;100.00;-18612.56;5106974;28;20062;-78
2023/07/28 07:24:39;;;;;;;46.53;20.58;;;;;;;21.86;100.00;-18614.47;5090825;28;20039;-78
2023/07/28 07:27:05;;;;;;;53.88;23.58;;;;;;;21.89;100.00;-18615.16;5107300;28;20122;-79
2023/07/28 07:29:30;;;;;;;55.78;22.73;;;;;;;21.82;100.00;-18613.38;5103359;28;20132;-80
2023/07/28 07:31:56;;;;;;;55.78;20.77;;;;;;;21.68;100.00;-18609.56;5108152;28;20062;-78
2023/07/28 07:34:23;;;;;;;41.63;20.42;;;;;;;21.76;100.00;-18611.63;5106894;28;20036;-78
2023/07/28 07:36:48;;;;;;;51.13;21.85;;;;;;;21.86;100.00;-18614.34;5104153;28;20074;-78
2023/07/28 07:39:14;;;;;;;52.05;20.25;;;;;;;21.71;100.00;-18610.41;5103411;28;20062;-79
2023/07/28 07:41:39;;;;;;;51.17;22.08;;;;;;;21.82;100.00;-18613.38;5107036;28;20047;-78
2023/07/28 07:44:04;;;;;;;52.25;22.50;;;;;;;21.71;100.00;-18610.25;5107079;28;20050;-79
2023/07/28 07:46:30;;;;;;;53.00;22.85;;;;;;;21.81;100.00;-18613.13;5107103;28;20043;-78
2023/07/28 07:48:55;;;;;;;47.65;21.58;;;;;;;21.68;100.00;-18609.44;5087794;28;20043;-79
2023/07/28 07:51:20;;;;;;;49.97;21.95;;;;;;;21.82;100.00;-18613.25;5105864;28;20061;-77
2023/07/28 07:53:46;;;;;;;48.70;21.70;;;;;;;21.85;100.00;-18614.06;5108111;28;20061;-79
2023/07/28 07:56:12;;;;;;;52.25;21.88;;;;;;;21.93;100.00;-18616.09;5106930;28;20035;-78
2023/07/28 07:58:37;;;;;;;47.17;23.00;;;;;;;21.88;100.00;-18614.75;5087213;28;20416;-79
2023/07/28 08:01:04;;;;;;;45.20;20.88;;;;;;;21.73;100.00;-18610.94;5107774;28;20035;-78
2023/07/28 08:03:29;;;;;;;44.58;22.75;;;;;;;21.77;100.00;-18612.03;5107008;28;20086;-79
2023/07/28 08:05:56;;;;;;;47.63;20.85;;;;;;;21.96;100.00;-18616.91;5108272;28;20555;-79
2023/07/28 08:08:21;;;;;;;54.53;22.77;;;;;;;21.95;100.00;-18616.78;5103988;28;20051;-77
2023/07/28 08:10:47;;;;;;;45.75;20.23;;;;;;;21.92;100.00;-18615.81;5105958;28;20442;-79
2023/07/28 08:13:13;;;;;;;44.67;20.60;;;;;;;21.79;100.00;-18612.56;5106538;28;20135;-79
2023/07/28 08:15:39;;;;;;;43.67;22.10;;;;;;;21.90;100.00;-18615.44;5089263;28;20577;-79
2023/07/28 08:18:04;;;;;;;45.63;22.73;;;;;;;22.01;100.00;-18618.28;5107842;28;20079;-78
2023/07/28 08:20:30;;;;;;;39.40;20.00;;;;;;;22.21;100.00;-18623.72;5105135;28;20075;-78
2023/07/28 08:22:55;;;;;;;40.25;21.23;;;;;;;22.08;100.00;-18620.19;5104880;28;20059;-78
2023/07/28 08:25:22;;;;;;;39.35;21.27;;;;;;;22.15;100.00;-18622.06;5105389;28;20077;-77
2023/07/28 08:27:48;;;;;;;41.15;22.65;;;;;;;22.17;100.00;-18622.63;5105842;28;20104;-77
2023/07/28 08:30:15;;;;;;;37.20;20.92;;;;;;;22.19;100.00;-18623.16;5101900;28;20062;-79
2023/07/28 08:32:41;;;;;;;37.65;19.73;;;;;;;22.01;100.00;-18618.28;5103245;28;20134;-79
2023/07/28 08:35:08;;;;;;;36.35;18.95;;;;;;;22.14;100.00;-18621.81;5105101;28;20039;-78
2023/07/28 08:37:33;;;;;;;44.05;18.90;;;;;;;22.17;100.00;-18622.63;5104535;28;20070;-78
2023/07/28 08:39:58;;;;;;;36.20;20.35;;;;;;;22.14;100.00;-18621.66;5101850;28;20494;-78
2023/07/28 08:42:24;;;;;;;36.90;21.20;;;;;;;22.26;100.00;-18625.06;5102856;28;20032;-80
2023/07/28 08:44:52;;;;;;;35.03;20.25;;;;;;;22.19;100.00;-18623.16;5105416;28;20047;-78
2023/07/28 08:47:18;;;;;;;36.47;20.73;;;;;;;22.29;100.00;-18625.88;5106797;28;20039;-80
2023/07/28 08:49:44;;;;;;;35.85;21.95;;;;;;;22.37;100.00;-18627.78;5106155;28;20039;-78
2023/07/28 08:52:09;;;;;;;35.03;21.33;;;;;;;22.41;100.00;-18629.00;5104682;28;20578;-78
2023/07/28 08:54:34;;;;;;;40.28;21.75;;;;;;;22.36;100.00;-18627.66;5106275;28;20041;-78
2023/07/28 08:57:00;;;;;;;35.80;21.60;;;;;;;22.45;100.00;-18630.09;5104325;28;20043;-77
2023/07/28 08:59:27;;;;;;;36.22;20.98;;;;;;;22.51;100.00;-18631.72;5072251;28;20411;-78
2023/07/28 09:01:55;;;;;;;35.03;20.42;;;;;;;22.56;100.00;-18632.94;5105225;28;20127;-78
2023/07/28 09:04:21;;;;;;;34.30;19.17;;;;;;;22.38;100.00;-18628.06;5102481;28;20483;-78
2023/07/28 09:06:48;;;;;;;31.42;19.88;;;;;;;22.45;100.00;-18630.09;5104626;28;20333;-79
2023/07/28 09:09:21;;;;;;;38.40;22.92;;;;;;;22.69;100.00;-18636.47;5106353;28;20696;-77
2023/07/28 09:11:51;;;;;;;34.00;20.08;;;;;;;22.74;100.00;-18637.84;5086337;28;20063;-80
2023/07/28 09:14:19;;;;;;;32.28;20.23;;;;;;;22.74;100.00;-18637.84;5104390;28;20550;-79
2023/07/28 09:16:45;;;;;;;33.70;20.08;;;;;;;22.85;100.00;-18640.56;5104541;28;20048;-78
2023/07/28 09:19:11;;;;;;;30.40;20.17;;;;;;;22.91;100.00;-18642.19;5100256;28;20039;-79
2023/07/28 09:21:40;;;;;;;33.38;18.80;;;;;;;22.83;100.00;-18640.00;5101534;28;20046;-78
2023/07/28 09:24:06;;;;;;;30.13;18.20;;;;;;;22.79;100.00;-18638.91;5104785;28;20040;-79
2023/07/28 09:26:40;;;;;;;33.33;19.42;;;;;;;22.98;100.00;-18644.06;5104726;28;20092;-78
2023/07/28 09:29:16;;;;;;;30.42;16.60;;;;;;;23.21;100.00;-18650.19;5105198;28;20047;-78
2023/07/28 09:31:43;;;;;;;25.75;14.85;;;;;;;23.08;100.00;-18646.66;5078983;28;20039;-78
2023/07/28 09:34:10;;;;;;;26.13;16.27;;;;;;;23.16;100.00;-18648.81;5105205;28;20078;-80
2023/07/28 09:36:38;;;;;;;27.98;17.40;;;;;;;23.30;100.00;-18652.50;5106089;28;20044;-79
2023/07/28 09:39:06;;;;;;;24.15;14.73;;;;;;;23.29;100.00;-18652.22;5098362;28;20028;-80
2023/07/28 09:41:37;;;;;;;26.95;17.30;;;;;;;23.29;100.00;-18652.22;5098698;28;20096;-77
2023/07/28 09:44:03;;;;;;;22.65;15.90;;;;;;;23.20;100.00;-18650.06;5104049;28;20043;-76
2023/07/28 09:46:32;;;;;;;27.23;16.42;;;;;;;23.02;100.00;-18645.16;5102299;28;20051;-79
2023/07/28 09:48:59;;;;;;;21.65;14.18;;;;;;;23.00;100.00;-18644.63;5102963;28;20070;-78
2023/07/28 09:51:31;;;;;;;27.77;17.27;;;;;;;23.27;100.00;-18651.69;5081723;28;20036;-77
2023/07/28 09:54:12;;;;;;;23.60;15.73;;;;;;;23.33;100.00;-18653.31;5103669;28;20071;-79
2023/07/28 09:56:41;;;;;;;22.30;13.88;;;;;;;23.10;100.00;-18647.34;5107840;28;20046;-80
2023/07/28 09:59:12;;;;;;;22.30;13.20;;;;;;;23.30;100.00;-18652.50;5105718;28;20166;-76
2023/07/28 10:01:39;;;;;;;21.98;13.25;;;;;;;23.23;100.00;-18650.59;5104556;28;20043;-79
2023/07/28 10:04:05;;;;;;;21.63;14.35;;;;;;;23.25;100.00;-18651.13;5083836;28;20466;-77
2023/07/28 10:06:33;;;;;;;22.20;13.73;;;;;;;23.27;100.00;-18651.81;5102520;28;20039;-75
2023/07/28 10:08:59;;;;;;;18.58;12.05;;;;;;;23.27;100.00;-18651.81;5101151;28;20544;-77
2023/07/28 10:11:25;;;;;;;22.45;12.48;;;;;;;23.29;100.00;-18652.22;5099952;28;20047;-77
2023/07/28 10:13:54;;;;;;;22.80;14.45;;;;;;;23.48;100.00;-18657.38;5099296;28;20051;-77
2023/07/28 10:16:29;;;;;;;20.88;12.38;;;;;;;23.33;100.00;-18653.31;5097096;28;20408;-76
2023/07/28 10:18:54;;;;;;;21.15;12.95;;;;;;;23.17;100.00;-18649.09;5100532;28;22141;-78
2023/07/28 10:21:20;;;;;;;21.17;12.15;;;;;;;23.17;100.00;-18649.25;5099309;28;20058;-78
2023/07/28 10:23:55;;;;;;;20.48;14.10;;;;;;;23.36;100.00;-18654.13;5102201;28;20427;-76
2023/07/28 10:26:31;;;;;;;21.60;13.20;;;;;;;23.27;100.00;-18651.69;5099011;28;20093;-78
2023/07/28 10:29:08;;;;;;;23.25;13.48;;;;;;;23.58;100.00;-18660.09;5088396;28;20039;-76
2023/07/28 10:31:34;;;;;;;26.20;15.50;;;;;;;23.53;100.00;-18658.59;5107191;28;20039;-77
2023/07/28 10:33:59;;;;;;;22.88;13.30;;;;;;;23.32;100.00;-18653.03;5108041;28;20139;-77
2023/07/28 10:36:25;;;;;;;28.05;16.15;;;;;;;23.40;100.00;-18655.34;5105843;28;20064;-77
2023/07/28 10:39:14;;;;;;;28.85;16.63;;;;;;;23.59;100.00;-18660.34;5110599;28;20047;-77
2023/07/28 10:42:01;;;;;;;28.88;14.88;;;;;;;23.63;100.00;-18661.44;5082516;28;20046;-79
2023/07/28 10:44:27;;;;;;;25.98;14.68;;;;;;;23.51;100.00;-18658.19;5082901;28;20039;-78
2023/07/28 10:46:52;;;;;;;27.42;14.73;;;;;;;23.46;100.00;-18656.84;5101085;28;20070;-76
2023/07/28 10:49:18;;;;;;;25.58;15.05;;;;;;;23.63;100.00;-18661.44;5101451;28;20543;-78
2023/07/28 10:51:43;;;;;;;24.73;15.00;;;;;;;23.60;100.00;-18660.63;5095643;28;20047;-78
2023/07/28 10:54:08;;;;;;;25.85;15.25;;;;;;;23.90;100.00;-18668.38;5104053;27;20494;-78
2023/07/28 10:56:34;;;;;;;24.50;14.45;;;;;;;23.99;100.00;-18670.94;5100502;28;20038;-78
2023/07/28 10:59:01;;;;;;;22.67;14.20;;;;;;;24.14;100.00;-18674.88;5083338;28;20050;-79